Time;durP1;ratioP1;P1;durP2;ratioP2;P2;SDS_P1;SDS_P2;PMS_P1;PMS_P2;Temp;Humidity;BMP_temperature;BMP_pressure;BME280_temperature;BME280_humidity;BME280_pressure;Samples;Min_cycle;Max_cycle;Signal;HPM_P1;HPM_P2
2021/03/14 00:00:48;;;;;;;17.55;12.45;;;;;;;2.88;79.50;98968.45;1744337;81;21576;-75
2021/03/14 00:03:18;;;;;;;17.27;12.58;;;;;;;2.96;79.10;98967.26;1746689;82;21331;-75
2021/03/14 00:05:47;;;;;;;17.82;13.00;;;;;;;2.90;79.43;98956.13;1745839;82;21148;-76
2021/03/14 00:08:17;;;;;;;17.05;12.95;;;;;;;2.83;79.44;98954.94;1746244;81;21126;-75
2021/03/14 00:10:51;;;;;;;17.57;12.45;;;;;;;2.88;79.28;98949.64;1729455;82;21577;-75
2021/03/14 00:13:23;;;;;;;18.15;13.00;;;;;;;2.94;78.87;98948.67;1719083;81;21141;-75
2021/03/14 00:15:51;;;;;;;19.65;13.83;;;;;;;2.82;79.38;98941.73;1747937;80;21616;-74
2021/03/14 00:18:19;;;;;;;19.10;12.68;;;;;;;2.75;79.71;98937.84;1747292;82;21140;-74
2021/03/14 00:20:47;;;;;;;16.48;11.88;;;;;;;2.82;79.50;98941.73;1724724;82;21181;-75
2021/03/14 00:23:14;;;;;;;15.95;12.13;;;;;;;2.90;79.17;98938.66;1719603;83;21307;-74
2021/03/14 00:25:42;;;;;;;20.70;13.78;;;;;;;2.84;79.05;98940.42;1735954;82;21152;-74
2021/03/14 00:28:09;;;;;;;20.48;14.10;;;;;;;2.75;79.23;98935.69;1737958;82;21662;-74
2021/03/14 00:30:37;;;;;;;20.50;13.03;;;;;;;2.70;79.66;98935.58;1745440;82;21166;-74
2021/03/14 00:33:05;;;;;;;19.62;13.85;;;;;;;2.80;79.12;98939.27;1702204;83;21169;-75
2021/03/14 00:35:33;;;;;;;21.48;13.80;;;;;;;2.72;79.67;98935.64;1733332;82;21146;-75
2021/03/14 00:38:00;;;;;;;19.55;13.43;;;;;;;2.65;79.92;98939.53;1740184;80;21197;-74
2021/03/14 00:40:28;;;;;;;20.40;12.88;;;;;;;2.65;79.83;98940.87;1751266;82;21343;-75
2021/03/14 00:43:00;;;;;;;18.57;12.20;;;;;;;2.74;79.46;98940.23;1746858;82;21616;-75
2021/03/14 00:45:34;;;;;;;22.00;13.22;;;;;;;2.65;79.70;98941.69;1750440;82;21596;-75
2021/03/14 00:48:03;;;;;;;20.40;13.93;;;;;;;2.59;79.84;98937.25;1746840;82;21168;-75
2021/03/14 00:50:35;;;;;;;19.92;11.57;;;;;;;2.57;79.79;98941.24;1720747;82;21157;-75
2021/03/14 00:53:03;;;;;;;19.40;12.70;;;;;;;2.64;79.61;98932.52;1736365;80;21164;-75
2021/03/14 00:55:32;;;;;;;18.23;12.70;;;;;;;2.64;79.55;98931.17;1747382;82;21149;-75
2021/03/14 00:58:00;;;;;;;23.70;14.98;;;;;;;2.57;79.97;98931.84;1722147;82;21311;-74
2021/03/14 01:00:28;;;;;;;18.57;12.23;;;;;;;2.50;80.12;98932.80;1745961;80;21591;-75
2021/03/14 01:02:56;;;;;;;18.05;12.13;;;;;;;2.56;79.94;98924.83;1738741;80;21132;-75
2021/03/14 01:05:25;;;;;;;19.50;13.08;;;;;;;2.62;79.79;98928.73;1747042;82;21125;-75
2021/03/14 01:07:53;;;;;;;22.25;13.72;;;;;;;2.55;79.90;98925.91;1731424;82;21153;-75
2021/03/14 01:10:22;;;;;;;19.27;13.05;;;;;;;2.49;80.17;98924.97;1748289;82;21138;-74
2021/03/14 01:12:51;;;;;;;17.80;12.13;;;;;;;2.52;80.23;98913.74;1755604;80;21180;-75
2021/03/14 01:15:21;;;;;;;16.40;11.90;;;;;;;2.56;80.07;98919.45;1749457;82;21631;-74
2021/03/14 01:17:50;;;;;;;21.75;13.90;;;;;;;2.51;80.20;98916.16;1746793;82;21144;-74
2021/03/14 01:20:20;;;;;;;17.45;12.23;;;;;;;2.45;80.39;98915.75;1736658;82;21200;-74
2021/03/14 01:22:48;;;;;;;20.35;13.10;;;;;;;2.55;80.05;98917.29;1743288;82;21137;-74
2021/03/14 01:25:16;;;;;;;17.25;12.28;;;;;;;2.58;79.74;98913.33;1749290;81;21218;-74
2021/03/14 01:27:45;;;;;;;19.80;13.32;;;;;;;2.51;80.12;98909.45;1721466;82;21184;-74
2021/03/14 01:30:16;;;;;;;17.02;12.45;;;;;;;2.47;80.12;98910.98;1747533;82;21163;-75
2021/03/14 01:32:44;;;;;;;15.50;10.98;;;;;;;2.51;79.96;98908.10;1746670;82;21168;-75
2021/03/14 01:35:13;;;;;;;14.28;11.03;;;;;;;2.57;79.65;98905.79;1741554;82;21202;-75
2021/03/14 01:37:41;;;;;;;15.53;11.95;;;;;;;2.50;79.77;98905.94;1745481;82;21170;-75
2021/03/14 01:40:09;;;;;;;14.03;10.70;;;;;;;2.39;80.14;98909.48;1750646;81;21315;-75
2021/03/14 01:42:36;;;;;;;16.70;11.63;;;;;;;2.37;80.28;98906.20;1717905;82;21683;-75
2021/03/14 01:45:06;;;;;;;15.28;11.68;;;;;;;2.44;79.75;98900.16;1742914;82;21148;-75
2021/03/14 01:47:41;;;;;;;18.02;12.65;;;;;;;2.33;79.70;98903.73;1748018;82;21158;-74
2021/03/14 01:50:15;;;;;;;17.77;12.55;;;;;;;2.19;80.14;98906.40;1748098;81;21555;-75
2021/03/14 01:52:44;;;;;;;17.15;13.40;;;;;;;2.17;80.62;98907.14;1744623;82;21746;-76
2021/03/14 01:55:14;;;;;;;18.20;13.28;;;;;;;2.22;80.29;98913.98;1747640;82;21588;-76
2021/03/14 01:57:42;;;;;;;20.52;12.85;;;;;;;2.15;80.46;98905.76;1750480;82;21587;-76
2021/03/14 02:00:13;;;;;;;17.23;12.88;;;;;;;2.02;80.86;98906.03;1712279;82;21200;-76
2021/03/14 02:02:41;;;;;;;16.80;12.53;;;;;;;2.03;80.92;98896.37;1718597;80;21184;-76
2021/03/14 02:05:13;;;;;;;16.85;13.13;;;;;;;2.06;80.93;98907.16;1745360;82;21138;-76
2021/03/14 02:07:42;;;;;;;18.12;13.13;;;;;;;1.98;81.42;98904.34;1735375;82;21177;-76
2021/03/14 02:10:12;;;;;;;18.25;12.68;;;;;;;1.92;81.65;98911.98;1719997;82;21573;-76
2021/03/14 02:12:48;;;;;;;17.67;12.75;;;;;;;1.98;81.61;98919.11;1742453;82;21186;-76
2021/03/14 02:15:16;;;;;;;18.85;13.20;;;;;;;2.05;81.22;98920.32;1740788;82;21218;-76
2021/03/14 02:17:44;;;;;;;17.20;12.95;;;;;;;1.93;81.71;98910.94;1737421;80;21190;-76
2021/03/14 02:20:16;;;;;;;17.62;13.48;;;;;;;1.90;81.72;98909.55;1680595;82;21198;-75
2021/03/14 02:22:46;;;;;;;18.25;13.20;;;;;;;1.96;81.50;98906.43;1743149;82;21589;-76
2021/03/14 02:25:33;;;;;;;19.15;13.78;;;;;;;1.94;81.63;98904.00;1738012;81;21615;-75
2021/03/14 02:28:02;;;;;;;17.32;13.48;;;;;;;1.89;81.81;98909.77;1718966;81;21196;-76
2021/03/14 02:30:29;;;;;;;21.25;13.43;;;;;;;1.80;82.06;98908.52;1739351;82;21307;-76
2021/03/14 02:32:58;;;;;;;17.77;12.82;;;;;;;1.90;81.76;98907.39;1742135;81;21165;-75
2021/03/14 02:35:25;;;;;;;19.42;14.05;;;;;;;1.91;81.63;98909.03;1741149;82;21146;-75
2021/03/14 02:37:53;;;;;;;18.95;13.38;;;;;;;1.84;82.00;98915.05;1720615;82;21620;-75
2021/03/14 02:40:20;;;;;;;19.27;13.15;;;;;;;1.76;82.40;98910.03;1693911;82;21119;-75
2021/03/14 02:42:49;;;;;;;17.80;13.15;;;;;;;1.88;82.03;98916.18;1738850;82;21447;-76
2021/03/14 02:45:17;;;;;;;18.45;13.45;;;;;;;1.87;82.06;98915.91;1690842;84;21197;-75
2021/03/14 02:47:45;;;;;;;21.27;14.15;;;;;;;1.82;82.18;98913.92;1668645;82;21224;-76
2021/03/14 02:50:18;;;;;;;17.37;12.90;;;;;;;1.82;82.19;98917.13;1738478;82;21126;-75
2021/03/14 02:53:40;;;;;;;18.65;14.18;;;;;;;1.91;82.16;98912.50;1803685;79;22815;-74
2021/03/14 02:56:08;;;;;;;20.00;14.07;;;;;;;1.78;82.43;98919.47;1746884;81;21170;-73
2021/03/14 02:58:36;;;;;;;18.85;13.90;;;;;;;1.74;82.34;98925.01;1737003;81;21159;-74
2021/03/14 03:01:05;;;;;;;18.95;14.33;;;;;;;1.82;82.13;98930.03;1724037;82;21290;-71
2021/03/14 03:03:32;;;;;;;17.67;13.75;;;;;;;1.88;81.77;98917.52;1747208;81;22002;-74
2021/03/14 03:06:00;;;;;;;19.23;14.00;;;;;;;1.83;82.00;98926.83;1701108;82;21160;-74
2021/03/14 03:08:29;;;;;;;18.42;13.88;;;;;;;1.73;82.22;98918.03;1702214;82;21362;-74
2021/03/14 03:11:01;;;;;;;18.02;13.72;;;;;;;1.72;82.64;98912.37;1738615;82;21157;-74
2021/03/14 03:13:33;;;;;;;19.05;14.03;;;;;;;1.78;82.58;98915.44;1735949;82;21185;-74
2021/03/14 03:16:00;;;;;;;18.20;14.33;;;;;;;1.69;82.71;98919.55;1742788;81;21161;-74
2021/03/14 03:18:28;;;;;;;19.90;14.50;;;;;;;1.62;83.26;98918.03;1731432;81;21198;-73
2021/03/14 03:20:55;;;;;;;18.50;13.60;;;;;;;1.72;83.18;98920.94;1751360;82;21165;-73
2021/03/14 03:23:23;;;;;;;19.12;14.60;;;;;;;1.80;82.71;98921.93;1743060;81;21761;-74
2021/03/14 03:25:50;;;;;;;21.05;16.17;;;;;;;1.72;82.97;98921.75;1729874;82;21186;-74
2021/03/14 03:28:18;;;;;;;20.48;14.45;;;;;;;1.64;83.30;98918.08;1737075;82;21295;-73
2021/03/14 03:30:46;;;;;;;19.92;14.98;;;;;;;1.73;83.21;98915.88;1721898;82;21153;-74
2021/03/14 03:33:13;;;;;;;21.50;16.17;;;;;;;1.72;83.28;98908.86;1736250;82;21181;-74
2021/03/14 03:35:42;;;;;;;21.40;15.48;;;;;;;1.66;83.76;98903.10;1741652;81;21263;-74
2021/03/14 03:38:10;;;;;;;20.68;15.68;;;;;;;1.66;83.76;98902.58;1690957;82;21173;-74
2021/03/14 03:40:38;;;;;;;20.62;15.20;;;;;;;1.74;83.54;98894.67;1709311;83;21193;-73
2021/03/14 03:43:22;;;;;;;23.45;17.30;;;;;;;1.72;83.51;98891.42;1728716;81;21774;-74
2021/03/14 03:45:52;;;;;;;22.67;16.32;;;;;;;1.66;83.85;98892.38;1717600;82;21133;-74
2021/03/14 03:48:33;;;;;;;21.60;16.85;;;;;;;1.69;83.96;98900.77;1725942;81;21161;-74
2021/03/14 03:51:03;;;;;;;24.37;18.12;;;;;;;1.71;83.78;98895.14;1754234;82;21173;-73
2021/03/14 03:53:32;;;;;;;24.50;17.10;;;;;;;1.63;84.07;98894.19;1694849;82;21219;-74
2021/03/14 03:56:01;;;;;;;23.95;18.52;;;;;;;1.69;84.03;98891.89;1661608;85;21173;-73
2021/03/14 03:58:30;;;;;;;27.22;19.00;;;;;;;1.70;83.97;98895.67;1680073;85;21153;-73
2021/03/14 04:00:59;;;;;;;25.08;19.32;;;;;;;1.62;84.39;98893.88;1683974;85;21601;-73
2021/03/14 04:03:27;;;;;;;25.40;18.73;;;;;;;1.59;84.54;98891.16;1676587;85;21605;-74
2021/03/14 04:05:56;;;;;;;26.23;18.55;;;;;;;1.70;84.35;98888.17;1682927;85;21194;-73
2021/03/14 04:08:25;;;;;;;27.90;20.08;;;;;;;1.71;84.32;98893.28;1662367;85;21324;-73
2021/03/14 04:10:53;;;;;;;27.37;20.15;;;;;;;1.68;84.52;98896.96;1683596;85;21687;-74
2021/03/14 04:13:21;;;;;;;26.33;19.55;;;;;;;1.74;84.35;98894.16;1682612;85;21319;-75
2021/03/14 04:15:49;;;;;;;28.45;20.77;;;;;;;1.82;84.12;98899.17;1667775;85;21162;-74
2021/03/14 04:18:18;;;;;;;28.05;20.12;;;;;;;1.76;84.39;98891.25;1680506;85;21177;-73
2021/03/14 04:20:47;;;;;;;28.20;19.92;;;;;;;1.72;84.55;98894.92;1660254;85;21611;-73
2021/03/14 04:23:20;;;;;;;28.98;20.80;;;;;;;1.75;84.60;98890.95;1661855;85;21335;-74
2021/03/14 04:25:52;;;;;;;28.00;20.85;;;;;;;1.84;84.23;98893.02;1665943;85;21168;-75
2021/03/14 04:28:20;;;;;;;33.80;23.10;;;;;;;1.77;84.54;98899.59;1671749;85;21616;-74
2021/03/14 04:30:47;;;;;;;33.20;21.85;;;;;;;1.72;84.74;98903.49;1640328;86;21177;-74
2021/03/14 04:33:15;;;;;;;31.05;22.30;;;;;;;1.83;84.43;98897.30;1660085;86;21217;-74
2021/03/14 04:35:42;;;;;;;33.28;23.92;;;;;;;1.86;84.31;98904.88;1678872;85;21197;-74
2021/03/14 04:38:10;;;;;;;33.92;22.67;;;;;;;1.77;84.63;98900.94;1684201;85;21387;-74
2021/03/14 04:40:38;;;;;;;33.75;22.90;;;;;;;1.84;84.43;98896.27;1679659;85;21165;-74
2021/03/14 04:43:05;;;;;;;35.58;24.32;;;;;;;1.92;84.13;98900.72;1665961;85;21173;-74
2021/03/14 04:45:33;;;;;;;36.55;23.85;;;;;;;1.83;84.46;98891.94;1628962;85;21190;-74
2021/03/14 04:48:01;;;;;;;33.73;22.62;;;;;;;1.78;84.59;98881.90;1663574;85;21169;-74
2021/03/14 04:50:29;;;;;;;33.42;22.67;;;;;;;1.86;84.34;98888.25;1678641;85;21299;-74
2021/03/14 04:52:59;;;;;;;39.10;24.95;;;;;;;1.89;84.18;98891.80;1695033;82;21712;-74
2021/03/14 04:55:28;;;;;;;38.70;25.50;;;;;;;1.80;84.50;98890.55;1687472;82;21146;-74
2021/03/14 04:57:56;;;;;;;35.88;24.30;;;;;;;1.79;84.56;98898.82;1698966;84;21197;-74
2021/03/14 05:00:23;;;;;;;35.45;22.77;;;;;;;1.88;84.22;98886.14;1719087;82;21185;-74
2021/03/14 05:02:55;;;;;;;35.65;24.55;;;;;;;1.89;84.22;98884.27;1709167;82;21169;-73
2021/03/14 05:05:23;;;;;;;38.85;24.95;;;;;;;1.81;84.51;98885.45;1699117;82;21199;-74
2021/03/14 05:07:51;;;;;;;36.88;23.77;;;;;;;1.78;84.67;98893.16;1710759;82;21165;-73
2021/03/14 05:10:23;;;;;;;34.98;22.87;;;;;;;1.89;84.29;98891.80;1731168;82;21280;-74
2021/03/14 05:12:52;;;;;;;40.28;25.92;;;;;;;1.91;84.16;98894.27;1740782;82;21185;-74
2021/03/14 05:15:19;;;;;;;39.13;24.60;;;;;;;1.79;84.47;98890.77;1705596;82;21185;-74
2021/03/14 05:17:48;;;;;;;34.67;21.97;;;;;;;1.80;84.50;98898.59;1690566;82;21261;-73
2021/03/14 05:20:18;;;;;;;42.83;26.77;;;;;;;1.81;84.36;98894.02;1716866;82;21177;-75
2021/03/14 05:22:49;;;;;;;40.85;25.92;;;;;;;1.75;84.56;98893.63;1695064;82;21653;-75
2021/03/14 05:25:18;;;;;;;35.15;22.65;;;;;;;1.70;84.79;98894.88;1730207;82;21564;-71
2021/03/14 05:28:08;;;;;;;37.15;22.95;;;;;;;1.77;84.60;98899.05;1724342;82;21186;-74
2021/03/14 05:30:36;;;;;;;39.45;24.47;;;;;;;1.71;84.57;98895.14;1636295;87;21330;-74
2021/03/14 05:33:05;;;;;;;34.75;21.87;;;;;;;1.65;84.82;98901.45;1636021;87;21195;-74
2021/03/14 05:35:34;;;;;;;37.08;23.67;;;;;;;1.65;84.78;98893.41;1612257;88;21190;-73
2021/03/14 05:38:01;;;;;;;32.67;21.77;;;;;;;1.75;84.43;98901.68;1637097;87;21259;-74
2021/03/14 05:40:29;;;;;;;32.38;20.77;;;;;;;1.64;84.51;98899.81;1610447;88;21205;-72
2021/03/14 05:42:58;;;;;;;31.68;21.70;;;;;;;1.54;84.68;98899.08;1636519;88;21133;-75
2021/03/14 05:45:26;;;;;;;33.05;21.23;;;;;;;1.63;84.38;98899.00;1637347;87;21637;-74
2021/03/14 05:47:53;;;;;;;29.10;20.15;;;;;;;1.64;84.25;98895.80;1637039;88;21356;-75
2021/03/14 05:50:24;;;;;;;28.60;20.08;;;;;;;1.50;84.62;98894.70;1637118;88;21153;-74
2021/03/14 05:52:52;;;;;;;25.65;17.37;;;;;;;1.53;84.61;98892.06;1617763;87;21674;-73
2021/03/14 05:55:25;;;;;;;25.75;18.20;;;;;;;1.59;84.39;98883.11;1635697;88;21161;-73
2021/03/14 05:57:55;;;;;;;23.40;17.45;;;;;;;1.54;84.57;98884.84;1637373;88;21325;-74
2021/03/14 06:00:28;;;;;;;20.85;15.20;;;;;;;1.53;84.65;98876.49;1637057;88;21209;-73
2021/03/14 06:03:01;;;;;;;23.73;16.45;;;;;;;1.64;84.19;98877.84;1637054;88;21158;-74
2021/03/14 06:05:30;;;;;;;21.15;15.93;;;;;;;1.59;84.29;98877.73;1636886;88;21336;-75
2021/03/14 06:07:59;;;;;;;19.95;14.50;;;;;;;1.56;84.45;98868.00;1636664;88;21335;-73
2021/03/14 06:10:28;;;;;;;20.88;15.83;;;;;;;1.66;84.17;98878.44;1636971;88;21184;-72
2021/03/14 06:12:55;;;;;;;20.85;14.35;;;;;;;1.75;83.92;98873.50;1633846;88;21178;-72
2021/03/14 06:15:23;;;;;;;19.30;13.22;;;;;;;1.70;84.03;98876.88;1628266;88;21230;-73
2021/03/14 06:17:51;;;;;;;16.80;13.22;;;;;;;1.81;83.81;98880.08;1636866;88;21205;-73
2021/03/14 06:20:43;;;;;;;18.27;13.70;;;;;;;1.93;83.42;98884.09;1636599;88;21258;-73
2021/03/14 06:23:16;;;;;;;19.65;14.60;;;;;;;1.89;83.44;98885.62;1637026;87;21365;-73
2021/03/14 06:25:48;;;;;;;17.25;12.80;;;;;;;1.87;83.62;98881.84;1636719;88;21191;-72
2021/03/14 06:28:16;;;;;;;17.27;13.45;;;;;;;1.98;83.16;98885.55;1637186;88;21176;-73
2021/03/14 06:30:44;;;;;;;18.70;13.93;;;;;;;2.00;82.95;98878.89;1637417;87;21203;-73
2021/03/14 06:33:15;;;;;;;20.82;13.88;;;;;;;2.02;83.18;98886.69;1637069;87;21186;-73
2021/03/14 06:35:48;;;;;;;17.27;13.72;;;;;;;2.15;82.88;98895.02;1637233;88;21179;-72
2021/03/14 06:38:22;;;;;;;19.42;14.15;;;;;;;2.32;82.37;98903.44;1636364;87;21328;-72
2021/03/14 06:40:54;;;;;;;19.90;13.68;;;;;;;2.35;82.17;98912.88;1625218;88;21177;-72
2021/03/14 06:43:21;;;;;;;19.07;13.85;;;;;;;2.33;81.83;98907.76;1623763;87;21675;-73
2021/03/14 06:45:49;;;;;;;17.50;13.35;;;;;;;2.42;81.62;98915.71;1636913;88;21213;-73
2021/03/14 06:48:23;;;;;;;20.82;13.32;;;;;;;2.51;81.06;98908.89;1637144;87;21196;-74
2021/03/14 06:50:51;;;;;;;17.52;13.00;;;;;;;2.52;80.96;98920.45;1637004;88;21177;-72
2021/03/14 06:53:25;;;;;;;18.65;13.95;;;;;;;2.49;80.91;98916.91;1637150;87;21193;-72
2021/03/14 06:55:57;;;;;;;16.97;12.75;;;;;;;2.59;80.53;98917.66;1637035;88;21167;-72
2021/03/14 06:58:30;;;;;;;16.77;12.78;;;;;;;2.69;80.37;98913.81;1636145;88;21214;-73
2021/03/14 07:01:16;;;;;;;17.75;13.03;;;;;;;2.66;80.06;98915.08;1636590;87;21629;-73
2021/03/14 07:03:53;;;;;;;16.12;12.50;;;;;;;2.66;80.10;98923.70;1636996;88;21221;-73
2021/03/14 07:06:26;;;;;;;16.05;12.55;;;;;;;2.75;79.67;98927.63;1611228;88;21748;-74
2021/03/14 07:09:09;;;;;;;17.70;12.80;;;;;;;2.80;79.49;98929.07;1636938;87;21169;-72
2021/03/14 07:11:45;;;;;;;17.85;12.95;;;;;;;2.74;79.52;98932.17;1635350;87;21157;-73
2021/03/14 07:14:16;;;;;;;17.77;12.93;;;;;;;2.84;79.12;98936.39;1637122;87;21271;-75
2021/03/14 07:16:54;;;;;;;17.42;13.13;;;;;;;2.89;79.01;98929.77;1637023;88;21159;-74
2021/03/14 07:19:30;;;;;;;16.73;12.40;;;;;;;2.81;79.21;98926.64;1634673;87;21256;-73
2021/03/14 07:22:10;;;;;;;14.10;11.25;;;;;;;2.93;78.94;98926.08;1636816;87;21159;-71
2021/03/14 07:24:40;;;;;;;16.80;13.48;;;;;;;3.01;78.41;98920.31;1637003;88;21259;-69
2021/03/14 07:27:22;;;;;;;18.20;13.85;;;;;;;3.03;78.48;98916.02;1637122;87;21176;-68
2021/03/14 07:29:52;;;;;;;18.62;12.23;;;;;;;3.03;78.56;98916.84;1606789;88;21351;-68
2021/03/14 07:32:21;;;;;;;15.68;11.90;;;;;;;3.15;77.89;98920.81;1628018;87;21574;-67
2021/03/14 07:34:49;;;;;;;16.35;13.00;;;;;;;3.18;77.65;98917.63;1628115;88;21663;-67
2021/03/14 07:37:16;;;;;;;15.13;11.83;;;;;;;3.16;77.81;98916.52;1628001;88;21179;-67
2021/03/14 07:39:47;;;;;;;14.70;11.85;;;;;;;3.26;77.74;98922.61;1627316;88;21221;-67
2021/03/14 07:42:21;;;;;;;17.25;12.23;;;;;;;3.40;77.22;98926.61;1628160;88;21339;-68
2021/03/14 07:44:50;;;;;;;15.95;12.40;;;;;;;3.40;76.95;98919.88;1601085;88;21241;-67
2021/03/14 07:47:20;;;;;;;15.58;11.80;;;;;;;3.42;77.18;98923.12;1582300;88;21196;-67
2021/03/14 07:49:51;;;;;;;14.68;11.53;;;;;;;3.54;76.54;98919.02;1627962;88;21185;-67
2021/03/14 07:52:27;;;;;;;15.95;11.68;;;;;;;3.58;76.17;98916.91;1628051;88;21169;-68
2021/03/14 07:55:04;;;;;;;15.38;11.60;;;;;;;3.57;76.60;98918.52;1620788;88;21625;-68
2021/03/14 07:57:31;;;;;;;13.67;11.00;;;;;;;3.56;76.23;98917.70;1604779;88;21224;-65
2021/03/14 08:00:25;;;;;;;12.88;10.08;;;;;;;3.68;75.81;98921.66;1571566;88;21230;-68
2021/03/14 08:02:56;;;;;;;12.35;10.08;;;;;;;3.66;74.89;98915.68;1588577;89;21224;-67
2021/03/14 08:05:45;;;;;;;12.55;9.88;;;;;;;3.64;75.57;98920.52;1581514;89;21231;-67
2021/03/14 08:08:30;;;;;;;13.28;10.28;;;;;;;3.64;75.33;98911.91;1584424;90;21333;-65
2021/03/14 08:10:59;;;;;;;13.05;10.48;;;;;;;3.84;75.21;98920.80;1594588;89;21233;-66
2021/03/14 08:13:34;;;;;;;13.62;10.30;;;;;;;3.94;75.09;98910.16;1594450;90;21220;-68
2021/03/14 08:16:07;;;;;;;15.35;11.83;;;;;;;3.95;74.71;98906.41;1594145;90;21911;-66
2021/03/14 08:18:44;;;;;;;13.55;10.03;;;;;;;3.89;74.85;98913.63;1593773;90;21204;-66
2021/03/14 08:21:23;;;;;;;13.13;10.05;;;;;;;3.96;74.89;98914.78;1577650;91;21631;-67
2021/03/14 08:23:56;;;;;;;13.90;10.48;;;;;;;4.01;74.34;98917.53;1565578;91;21698;-69
2021/03/14 08:26:27;;;;;;;15.32;10.85;;;;;;;3.96;74.72;98917.48;1577370;91;21167;-68
2021/03/14 08:29:00;;;;;;;12.90;9.30;;;;;;;3.97;74.71;98921.25;1569749;91;21400;-68
2021/03/14 08:31:51;;;;;;;13.08;9.35;;;;;;;4.10;74.31;98926.83;1577592;91;21215;-67
2021/03/14 08:34:32;;;;;;;12.15;9.35;;;;;;;4.22;73.48;98923.46;1577473;91;21829;-68
2021/03/14 08:37:02;;;;;;;11.70;9.40;;;;;;;4.20;73.54;98922.91;1581310;89;21604;-65
2021/03/14 08:39:38;;;;;;;11.80;8.70;;;;;;;4.16;73.79;98936.59;1592393;90;21366;-66
2021/03/14 08:42:17;;;;;;;11.88;8.75;;;;;;;4.32;73.62;98938.96;1779565;79;23032;-68
2021/03/14 08:44:47;;;;;;;14.03;9.85;;;;;;;4.41;72.80;98930.70;1722502;82;21315;-67
2021/03/14 08:47:32;;;;;;;13.48;10.25;;;;;;;4.42;72.73;98939.91;1772519;79;23430;-67
2021/03/14 08:50:05;;;;;;;10.95;8.48;;;;;;;4.26;72.81;98943.98;1720942;82;21299;-67
2021/03/14 08:52:51;;;;;;;12.75;8.70;;;;;;;4.14;73.15;98933.87;1712228;83;21168;-67
2021/03/14 08:55:28;;;;;;;10.70;9.60;;;;;;;4.31;73.21;98937.33;1754774;80;28596;-69
2021/03/14 08:57:56;;;;;;;11.90;9.65;;;;;;;4.57;72.05;98942.50;1752154;80;21157;-69
2021/03/14 09:00:25;;;;;;;11.75;9.55;;;;;;;4.60;71.69;98936.06;1753538;80;21168;-67
2021/03/14 09:02:55;;;;;;;11.15;9.03;;;;;;;4.46;72.34;98938.30;1728884;81;21136;-71
2021/03/14 09:05:28;;;;;;;11.30;8.68;;;;;;;4.51;72.49;98924.91;1757840;81;21475;-68
2021/03/14 09:07:59;;;;;;;11.90;8.95;;;;;;;4.68;72.57;98926.69;1724445;80;21295;-68
2021/03/14 09:10:36;;;;;;;11.88;8.98;;;;;;;4.76;72.08;98922.20;1744924;81;21177;-70
2021/03/14 09:13:29;;;;;;;11.28;8.10;;;;;;;4.84;71.72;98914.48;1753095;82;21128;-66
2021/03/14 09:15:59;;;;;;;10.35;8.35;;;;;;;4.88;71.19;98910.75;1750888;81;21593;-68
2021/03/14 09:18:49;;;;;;;11.03;8.57;;;;;;;4.96;70.71;98906.22;1720638;83;21405;-68
2021/03/14 09:21:18;;;;;;;11.00;8.48;;;;;;;4.98;71.24;98896.01;1694341;83;21145;-68
2021/03/14 09:23:47;;;;;;;13.00;9.83;;;;;;;4.99;71.16;98896.30;1694983;83;21173;-69
2021/03/14 09:26:29;;;;;;;12.30;9.25;;;;;;;4.93;71.28;98883.80;1724904;83;21673;-69
2021/03/14 09:29:01;;;;;;;11.73;8.53;;;;;;;5.09;71.32;98895.56;1701450;83;21195;-66
2021/03/14 09:31:30;;;;;;;11.10;8.98;;;;;;;5.16;70.44;98880.80;1694584;83;21195;-67
2021/03/14 09:34:02;;;;;;;11.45;9.35;;;;;;;5.02;71.05;98883.64;1677621;84;21699;-68
2021/03/14 09:36:32;;;;;;;11.30;8.73;;;;;;;5.01;71.50;98889.56;1698070;83;21573;-67
2021/03/14 09:39:02;;;;;;;11.20;8.40;;;;;;;5.15;71.48;98884.55;1699970;84;21180;-69
2021/03/14 09:41:44;;;;;;;10.43;7.90;;;;;;;5.51;70.81;98877.02;1792281;79;23076;-70
2021/03/14 09:44:23;;;;;;;10.45;8.50;;;;;;;5.59;69.63;98884.35;1757803;80;21298;-69
2021/03/14 09:47:00;;;;;;;10.05;8.03;;;;;;;5.54;69.28;98885.12;1729428;82;21289;-69
2021/03/14 09:50:07;;;;;;;11.08;8.30;;;;;;;5.54;70.01;98889.17;1785613;78;22853;-68
2021/03/14 09:52:47;;;;;;;10.53;7.58;;;;;;;5.55;69.91;98889.45;1749900;80;21622;-70
2021/03/14 09:55:32;;;;;;;8.98;7.40;;;;;;;5.49;69.40;98889.16;1713116;82;21169;-66
2021/03/14 09:58:00;;;;;;;10.00;7.90;;;;;;;5.38;70.44;98884.22;1743563;81;21453;-68
2021/03/14 10:00:33;;;;;;;10.55;7.65;;;;;;;5.21;70.57;98878.12;1748836;80;22267;-64
2021/03/14 10:03:04;;;;;;;9.45;7.30;;;;;;;5.14;71.16;98880.75;1750680;81;21302;-67
2021/03/14 10:05:39;;;;;;;10.13;8.03;;;;;;;5.15;71.28;98883.20;1758087;81;21154;-68
2021/03/14 10:08:08;;;;;;;9.75;7.97;;;;;;;5.03;71.69;98884.45;1755072;81;21153;-69
2021/03/14 10:10:38;;;;;;;10.60;7.60;;;;;;;4.89;72.13;98878.64;1752903;81;21612;-69
2021/03/14 10:13:09;;;;;;;9.13;6.92;;;;;;;4.84;72.17;98875.91;1750473;81;21220;-70
2021/03/14 10:15:37;;;;;;;10.20;7.70;;;;;;;4.83;71.88;98879.67;1750734;81;21289;-69
2021/03/14 10:18:07;;;;;;;10.53;7.60;;;;;;;4.73;72.13;98868.27;1758517;81;21196;-68
2021/03/14 10:20:37;;;;;;;10.15;7.97;;;;;;;4.60;72.97;98874.59;1760719;81;21371;-66
2021/03/14 10:23:08;;;;;;;10.75;8.18;;;;;;;4.48;73.46;98851.83;1748757;80;21296;-66
2021/03/14 10:25:45;;;;;;;10.28;7.80;;;;;;;4.58;73.42;98862.71;1748629;81;21103;-67
2021/03/14 10:28:19;;;;;;;10.05;7.75;;;;;;;4.61;73.35;98865.42;1743913;81;21135;-67
2021/03/14 10:31:03;;;;;;;11.03;8.43;;;;;;;4.59;73.28;98852.22;1809881;79;23207;-67
2021/03/14 10:33:37;;;;;;;8.98;7.20;;;;;;;4.46;73.65;98852.06;1772038;80;21157;-67
2021/03/14 10:36:16;;;;;;;9.70;8.20;;;;;;;4.53;73.61;98844.59;1746843;81;21156;-67
2021/03/14 10:38:47;;;;;;;10.78;8.88;;;;;;;4.51;73.68;98845.39;1751311;80;21218;-65
2021/03/14 10:41:23;;;;;;;10.00;8.20;;;;;;;4.60;73.86;98837.67;1812583;79;23186;-65
2021/03/14 10:44:01;;;;;;;10.63;8.15;;;;;;;4.58;73.11;98827.67;1770036;80;21145;-67
2021/03/14 10:46:42;;;;;;;11.18;9.00;;;;;;;4.75;72.78;98837.80;1739101;81;21188;-69
2021/03/14 10:49:14;;;;;;;11.50;9.25;;;;;;;4.85;72.66;98835.19;1738198;80;21181;-69
2021/03/14 10:51:43;;;;;;;11.43;9.13;;;;;;;4.89;72.38;98828.75;1746286;81;21145;-68
2021/03/14 10:54:14;;;;;;;10.95;8.88;;;;;;;4.83;72.43;98833.83;1732244;82;21670;-67
2021/03/14 10:59:29;;;;;;;15.20;10.95;;;;;;;4.82;72.40;98830.31;1813019;79;23448;-68
2021/03/14 11:02:21;;;;;;;14.30;11.68;;;;;;;4.69;72.97;98819.95;1786817;80;21290;-69
2021/03/14 11:04:57;;;;;;;11.97;9.73;;;;;;;4.63;72.97;98811.55;1763190;80;21168;-66
2021/03/14 11:07:32;;;;;;;12.45;10.55;;;;;;;4.71;72.73;98814.33;1750099;82;21217;-65
2021/03/14 11:10:14;;;;;;;13.45;10.50;;;;;;;4.61;73.23;98816.38;1751100;79;22712;-66
2021/03/14 11:12:45;;;;;;;12.93;10.05;;;;;;;4.33;73.39;98771.64;1705726;83;21178;-65
2021/03/14 11:15:31;;;;;;;14.23;11.00;;;;;;;4.56;73.38;98811.48;1714693;82;21172;-64
2021/03/14 11:18:22;;;;;;;14.43;11.05;;;;;;;4.60;73.43;98796.42;1795506;79;22905;-67
2021/03/14 11:21:09;;;;;;;15.70;11.15;;;;;;;4.47;73.65;98804.37;1733755;81;21358;-64
2021/03/14 11:23:38;;;;;;;14.18;11.30;;;;;;;4.42;74.01;98808.38;1700611;83;21611;-65
2021/03/14 11:26:08;;;;;;;15.55;12.25;;;;;;;4.53;73.70;98800.69;1698744;82;21584;-65
2021/03/14 11:28:47;;;;;;;15.05;13.05;;;;;;;4.53;73.79;98792.03;1731079;82;21192;-67
2021/03/14 11:31:16;;;;;;;13.55;11.08;;;;;;;4.52;74.11;98797.70;1729923;82;21771;-66
2021/03/14 11:33:45;;;;;;;14.63;11.60;;;;;;;4.70;73.81;98795.17;1738948;81;21174;-66
2021/03/14 11:36:17;;;;;;;14.90;11.63;;;;;;;4.89;73.21;98793.16;1680706;84;21188;-66
2021/03/14 11:39:05;;;;;;;15.30;12.45;;;;;;;5.00;72.86;98797.56;1723826;83;21177;-67
2021/03/14 11:41:39;;;;;;;15.32;12.13;;;;;;;5.05;72.66;98787.89;1699563;84;21691;-67
2021/03/14 11:44:07;;;;;;;16.10;11.93;;;;;;;5.03;72.36;98784.66;1700566;84;21353;-69
2021/03/14 11:46:34;;;;;;;16.60;12.60;;;;;;;5.14;72.31;98777.70;1704319;83;21689;-66
2021/03/14 11:49:06;;;;;;;17.15;13.78;;;;;;;5.21;71.75;98774.80;1728958;82;21153;-66
2021/03/14 11:51:34;;;;;;;17.02;12.82;;;;;;;5.15;71.53;98772.59;1725766;83;21577;-65